Time;durP1;ratioP1;P1;durP2;ratioP2;P2;SDS_P1;SDS_P2;PMS_P1;PMS_P2;Temp;Humidity;BMP_temperature;BMP_pressure;BME280_temperature;BME280_humidity;BME280_pressure;Samples;Min_cycle;Max_cycle;Signal;HPM_P1;HPM_P2
2024/01/24 00:00:15;;;;;;;5.23;1.30;;;;;;;;;;5031615;28;20021;-70
2024/01/24 00:02:41;;;;;;;10.13;1.50;;;;;;;;;;5030639;28;20029;-69
2024/01/24 00:05:07;;;;;;;6.43;1.47;;;;;;;;;;5034824;28;20563;-67
2024/01/24 00:07:35;;;;;;;8.63;1.40;;;;;;;;;;5050535;28;20569;-68
2024/01/24 00:10:02;;;;;;;6.70;1.37;;;;;;;;;;5050393;28;20048;-68
2024/01/24 00:12:28;;;;;;;4.33;1.10;;;;;;;;;;5051555;28;20041;-68
2024/01/24 00:14:53;;;;;;;6.60;1.63;;;;;;;;;;5033837;28;20175;-69
2024/01/24 00:17:19;;;;;;;5.17;1.50;;;;;;;;;;5043206;28;20032;-69
2024/01/24 00:19:44;;;;;;;5.37;1.57;;;;;;;;;;5032272;28;20026;-68
2024/01/24 00:22:11;;;;;;;5.50;1.60;;;;;;;;;;5031534;28;20052;-69
2024/01/24 00:24:37;;;;;;;5.60;1.50;;;;;;;;;;5031283;28;20084;-68
2024/01/24 00:27:03;;;;;;;4.30;1.00;;;;;;;;;;5029839;28;20455;-70
2024/01/24 00:29:28;;;;;;;5.53;1.30;;;;;;;;;;5039244;28;20037;-68
2024/01/24 00:31:55;;;;;;;4.00;1.60;;;;;;;;;;5051313;28;20090;-67
2024/01/24 00:34:21;;;;;;;5.83;1.30;;;;;;;;;;5049475;28;20029;-68
2024/01/24 00:36:49;;;;;;;5.70;1.47;;;;;;;;;;5049341;28;20041;-69
2024/01/24 00:39:14;;;;;;;5.80;2.40;;;;;;;;;;5051317;28;20017;-70
2024/01/24 00:41:41;;;;;;;7.60;1.23;;;;;;;;;;5039698;28;20033;-68
2024/01/24 00:44:07;;;;;;;5.30;1.23;;;;;;;;;;5031059;28;20029;-68
2024/01/24 00:46:32;;;;;;;4.85;1.15;;;;;;;;;;5030917;28;20067;-68
2024/01/24 00:48:58;;;;;;;7.47;1.20;;;;;;;;;;5029759;28;20029;-68
2024/01/24 00:51:24;;;;;;;3.60;1.20;;;;;;;;;;5029123;28;20032;-69
2024/01/24 00:53:51;;;;;;;5.77;1.70;;;;;;;;;;5029603;28;20417;-72
2024/01/24 00:56:17;;;;;;;3.23;1.10;;;;;;;;;;5029429;28;20068;-68
2024/01/24 00:58:43;;;;;;;8.13;1.85;;;;;;;;;;5030929;28;20060;-69
2024/01/24 01:01:08;;;;;;;4.53;1.75;;;;;;;;;;5029554;28;20400;-67
2024/01/24 01:03:34;;;;;;;6.10;1.35;;;;;;;;;;5029376;28;20029;-68
2024/01/24 01:05:59;;;;;;;7.83;1.60;;;;;;;;;;5030720;28;20115;-67
2024/01/24 01:08:25;;;;;;;5.07;1.40;;;;;;;;;;5030620;28;20041;-69
2024/01/24 01:10:50;;;;;;;4.90;1.43;;;;;;;;;;5030659;28;20425;-68
2024/01/24 01:13:16;;;;;;;8.60;1.20;;;;;;;;;;5030401;28;20521;-70
2024/01/24 01:15:41;;;;;;;6.90;1.13;;;;;;;;;;5030139;28;20037;-69
2024/01/24 01:18:08;;;;;;;6.22;1.13;;;;;;;;;;5039493;28;20036;-67
2024/01/24 01:20:33;;;;;;;4.87;1.40;;;;;;;;;;5048529;28;20029;-69
2024/01/24 01:22:59;;;;;;;3.73;0.93;;;;;;;;;;5049616;28;20124;-70
2024/01/24 01:25:25;;;;;;;5.63;1.10;;;;;;;;;;5049998;28;20381;-67
2024/01/24 01:27:52;;;;;;;1.90;0.87;;;;;;;;;;5048501;28;20028;-70
2024/01/24 01:30:17;;;;;;;4.73;1.43;;;;;;;;;;5034260;28;20037;-66
2024/01/24 01:32:44;;;;;;;3.83;1.27;;;;;;;;;;5030082;28;20033;-70
2024/01/24 01:35:10;;;;;;;3.10;1.10;;;;;;;;;;5030257;28;20495;-67
2024/01/24 01:37:38;;;;;;;5.30;1.37;;;;;;;;;;5029257;28;20041;-68
2024/01/24 01:40:06;;;;;;;6.30;1.30;;;;;;;;;;5012326;28;20030;-69
2024/01/24 01:42:32;;;;;;;4.60;1.20;;;;;;;;;;5043238;28;20082;-69
2024/01/24 01:44:58;;;;;;;2.03;1.00;;;;;;;;;;5048955;28;20378;-68
2024/01/24 01:47:25;;;;;;;4.70;1.53;;;;;;;;;;5049401;28;20055;-68
2024/01/24 01:49:52;;;;;;;3.17;1.20;;;;;;;;;;5047793;28;20167;-68
2024/01/24 01:52:19;;;;;;;5.10;1.30;;;;;;;;;;5048388;28;20481;-68
2024/01/24 01:54:46;;;;;;;1.30;0.87;;;;;;;;;;5035830;28;20033;-69
2024/01/24 01:57:14;;;;;;;4.27;1.40;;;;;;;;;;5028593;28;20033;-69
2024/01/24 01:59:43;;;;;;;6.00;1.70;;;;;;;;;;5028425;28;20362;-68
2024/01/24 02:02:10;;;;;;;2.50;1.47;;;;;;;;;;5029848;28;20478;-68
2024/01/24 02:04:36;;;;;;;6.63;1.60;;;;;;;;;;5011816;28;20649;-67
2024/01/24 02:07:03;;;;;;;4.60;1.20;;;;;;;;;;5045400;28;20044;-68
2024/01/24 02:09:29;;;;;;;4.63;1.13;;;;;;;;;;5049161;28;20086;-68
2024/01/24 02:11:55;;;;;;;4.38;1.52;;;;;;;;;;5047847;28;20082;-67
2024/01/24 02:14:21;;;;;;;2.37;1.10;;;;;;;;;;5049335;28;20471;-68
2024/01/24 02:16:46;;;;;;;5.63;1.27;;;;;;;;;;5047576;28;20032;-67
2024/01/24 02:19:12;;;;;;;6.43;1.20;;;;;;;;;;5028164;28;20466;-67
2024/01/24 02:21:37;;;;;;;5.77;1.33;;;;;;;;;;5029359;28;20076;-68
2024/01/24 02:24:08;;;;;;;6.17;1.20;;;;;;;;;;5029438;28;20029;-67
2024/01/24 02:26:34;;;;;;;4.97;1.20;;;;;;;;;;5029220;28;20033;-67
2024/01/24 02:28:59;;;;;;;3.47;1.20;;;;;;;;;;5031010;28;20032;-69
2024/01/24 02:31:25;;;;;;;4.13;1.30;;;;;;;;;;5047748;28;20034;-69
2024/01/24 02:33:50;;;;;;;2.83;1.00;;;;;;;;;;5048033;28;20033;-68
2024/01/24 02:36:16;;;;;;;3.73;1.20;;;;;;;;;;5047893;28;20029;-68
2024/01/24 02:38:42;;;;;;;4.10;1.20;;;;;;;;;;5047305;28;20037;-68
2024/01/24 02:41:07;;;;;;;8.90;1.40;;;;;;;;;;5046399;28;20060;-69
2024/01/24 02:43:34;;;;;;;1.97;1.00;;;;;;;;;;5048062;28;20388;-68
2024/01/24 02:46:00;;;;;;;3.63;1.07;;;;;;;;;;5048407;28;20037;-68
2024/01/24 02:48:26;;;;;;;4.13;1.07;;;;;;;;;;5048551;28;20037;-69
2024/01/24 02:50:52;;;;;;;4.37;1.43;;;;;;;;;;5048256;28;20079;-68
2024/01/24 02:53:18;;;;;;;3.70;1.10;;;;;;;;;;5043663;28;20033;-68
2024/01/24 02:55:44;;;;;;;3.43;1.40;;;;;;;;;;5027698;28;20057;-67
2024/01/24 02:58:10;;;;;;;4.27;1.20;;;;;;;;;;5029013;28;20029;-67
2024/01/24 03:00:36;;;;;;;2.57;1.10;;;;;;;;;;5028736;28;20036;-68
2024/01/24 03:03:01;;;;;;;5.80;1.40;;;;;;;;;;5035607;28;20509;-69
2024/01/24 03:05:27;;;;;;;5.23;1.00;;;;;;;;;;5032227;28;20037;-67
2024/01/24 03:07:54;;;;;;;4.33;1.00;;;;;;;;;;5031213;28;20425;-71
2024/01/24 03:10:21;;;;;;;1.73;0.70;;;;;;;;;;5031373;28;20701;-68
2024/01/24 03:12:47;;;;;;;4.70;0.80;;;;;;;;;;5043920;28;20029;-68
2024/01/24 03:15:12;;;;;;;6.03;1.67;;;;;;;;;;5051378;28;20110;-68
2024/01/24 03:17:38;;;;;;;7.13;0.87;;;;;;;;;;5052289;28;20492;-67
2024/01/24 03:20:05;;;;;;;2.33;0.90;;;;;;;;;;5052852;28;20060;-67
2024/01/24 03:22:31;;;;;;;3.40;1.23;;;;;;;;;;5052435;28;20032;-68
2024/01/24 03:24:56;;;;;;;2.87;0.87;;;;;;;;;;5037345;28;20049;-68
2024/01/24 03:27:22;;;;;;;4.93;1.03;;;;;;;;;;5031467;28;20029;-69
2024/01/24 03:29:48;;;;;;;3.53;1.27;;;;;;;;;;5030746;28;20033;-68
2024/01/24 03:32:14;;;;;;;1.23;0.70;;;;;;;;;;5031362;28;20041;-68
2024/01/24 03:34:40;;;;;;;2.37;0.90;;;;;;;;;;5014440;28;20245;-68
2024/01/24 03:37:05;;;;;;;3.83;1.20;;;;;;;;;;5031362;28;20039;-69
2024/01/24 03:39:31;;;;;;;1.53;0.90;;;;;;;;;;5032382;28;20021;-67
2024/01/24 03:41:57;;;;;;;1.93;0.80;;;;;;;;;;5031084;28;20556;-70
2024/01/24 03:44:22;;;;;;;3.27;1.27;;;;;;;;;;5032600;28;20128;-68
2024/01/24 03:46:48;;;;;;;4.73;1.10;;;;;;;;;;5034736;28;20101;-67
2024/01/24 03:49:14;;;;;;;5.17;1.03;;;;;;;;;;5048261;28;20029;-69
2024/01/24 03:51:40;;;;;;;4.77;1.10;;;;;;;;;;5050945;28;20048;-68
2024/01/24 03:54:05;;;;;;;1.10;0.83;;;;;;;;;;5052027;28;20500;-67
2024/01/24 03:56:31;;;;;;;2.20;1.00;;;;;;;;;;5052559;28;20104;-67
2024/01/24 03:58:57;;;;;;;3.57;1.20;;;;;;;;;;5050527;28;20473;-70
2024/01/24 04:01:23;;;;;;;3.92;1.13;;;;;;;;;;5051419;28;20397;-70
2024/01/24 04:03:49;;;;;;;4.03;1.30;;;;;;;;;;5050109;28;20036;-70
2024/01/24 04:06:15;;;;;;;6.30;1.37;;;;;;;;;;5051579;28;20037;-68
2024/01/24 04:08:43;;;;;;;1.63;1.03;;;;;;;;;;5050025;28;20024;-68
2024/01/24 04:11:09;;;;;;;4.15;1.67;;;;;;;;;;5050115;28;20103;-68
2024/01/24 04:13:35;;;;;;;2.03;1.27;;;;;;;;;;5037439;28;20033;-69
2024/01/24 04:16:02;;;;;;;5.25;1.50;;;;;;;;;;5031959;28;20112;-68
2024/01/24 04:18:30;;;;;;;5.15;1.10;;;;;;;;;;5031760;28;20033;-68
2024/01/24 04:20:56;;;;;;;2.33;1.00;;;;;;;;;;5030627;28;20481;-68
2024/01/24 04:23:21;;;;;;;4.22;1.05;;;;;;;;;;5030972;28;20037;-68
2024/01/24 04:25:49;;;;;;;2.95;1.20;;;;;;;;;;5030461;28;20033;-67
2024/01/24 04:28:14;;;;;;;3.40;1.33;;;;;;;;;;5031398;28;20455;-68
2024/01/24 04:30:40;;;;;;;3.63;1.25;;;;;;;;;;5030858;28;20037;-68
2024/01/24 04:33:07;;;;;;;1.85;1.08;;;;;;;;;;5029680;28;20363;-69
2024/01/24 04:35:32;;;;;;;2.25;1.13;;;;;;;;;;5029897;28;20550;-68
2024/01/24 04:37:58;;;;;;;7.00;1.27;;;;;;;;;;5037751;28;20342;-68
2024/01/24 04:40:23;;;;;;;2.75;1.38;;;;;;;;;;5033440;28;20061;-70
2024/01/24 04:42:49;;;;;;;22.35;1.45;;;;;;;;;;5029699;28;20041;-68
2024/01/24 04:45:15;;;;;;;2.17;0.90;;;;;;;;;;5029631;28;20033;-69
2024/01/24 04:47:42;;;;;;;4.75;1.08;;;;;;;;;;5031258;28;20029;-70
2024/01/24 04:50:10;;;;;;;6.55;1.33;;;;;;;;;;5024283;28;20056;-68
2024/01/24 04:52:36;;;;;;;5.20;1.08;;;;;;;;;;5050469;28;20476;-69
2024/01/24 04:55:01;;;;;;;5.47;1.05;;;;;;;;;;5050784;28;20052;-69
2024/01/24 04:57:27;;;;;;;3.08;1.45;;;;;;;;;;5050913;28;20142;-69
2024/01/24 04:59:52;;;;;;;2.83;1.15;;;;;;;;;;5050427;28;20433;-69
2024/01/24 05:02:19;;;;;;;2.10;0.90;;;;;;;;;;5050246;28;20061;-71
2024/01/24 05:04:45;;;;;;;1.95;0.80;;;;;;;;;;5050308;28;20032;-68
2024/01/24 05:07:11;;;;;;;2.17;1.00;;;;;;;;;;5032530;28;20029;-69
2024/01/24 05:09:38;;;;;;;1.27;0.57;;;;;;;;;;5048817;28;20078;-70
2024/01/24 05:12:04;;;;;;;1.50;0.60;;;;;;;;;;5050566;28;20101;-68
2024/01/24 05:14:30;;;;;;;1.90;0.93;;;;;;;;;;5035391;28;20410;-69
2024/01/24 05:16:56;;;;;;;2.65;0.75;;;;;;;;;;5046120;28;20025;-69
2024/01/24 05:19:21;;;;;;;2.75;1.13;;;;;;;;;;5049275;28;20021;-68
2024/01/24 05:21:47;;;;;;;4.07;0.85;;;;;;;;;;5050063;28;20029;-69
2024/01/24 05:24:13;;;;;;;3.58;0.73;;;;;;;;;;5047629;28;20060;-69
2024/01/24 05:26:39;;;;;;;0.98;0.63;;;;;;;;;;5047931;28;20112;-68
2024/01/24 05:29:07;;;;;;;4.05;0.73;;;;;;;;;;5048753;28;20110;-69
2024/01/24 05:31:36;;;;;;;4.35;1.30;;;;;;;;;;5049874;28;20641;-69
2024/01/24 05:34:02;;;;;;;3.28;1.00;;;;;;;;;;5032300;28;20503;-68
2024/01/24 05:36:28;;;;;;;1.35;0.73;;;;;;;;;;5048784;28;20051;-69
2024/01/24 05:38:53;;;;;;;1.90;0.70;;;;;;;;;;5035579;28;20037;-69
2024/01/24 05:41:19;;;;;;;1.83;0.98;;;;;;;;;;5029801;28;20056;-69
2024/01/24 05:43:44;;;;;;;1.50;0.88;;;;;;;;;;5028233;28;20029;-68
2024/01/24 05:46:10;;;;;;;1.77;0.88;;;;;;;;;;5028529;28;20043;-69
2024/01/24 05:48:35;;;;;;;0.80;0.52;;;;;;;;;;5029855;28;20428;-69
2024/01/24 05:51:01;;;;;;;1.58;0.70;;;;;;;;;;5030046;28;20033;-68
2024/01/24 05:53:27;;;;;;;2.58;1.38;;;;;;;;;;5029800;28;20072;-68
2024/01/24 05:55:53;;;;;;;2.53;0.60;;;;;;;;;;5029228;28;20037;-68
2024/01/24 05:58:20;;;;;;;2.63;0.77;;;;;;;;;;5012457;28;20041;-67
2024/01/24 06:00:47;;;;;;;2.05;0.93;;;;;;;;;;5030083;28;20063;-67
2024/01/24 06:03:13;;;;;;;2.60;0.75;;;;;;;;;;5043377;28;20051;-68
2024/01/24 06:05:39;;;;;;;3.05;1.10;;;;;;;;;;5048448;28;20021;-67
2024/01/24 06:08:05;;;;;;;1.75;0.80;;;;;;;;;;5048287;28;20492;-68
2024/01/24 06:10:31;;;;;;;2.67;0.80;;;;;;;;;;5049742;28;20077;-68
2024/01/24 06:12:57;;;;;;;7.82;0.77;;;;;;;;;;5031442;28;20429;-67
2024/01/24 06:15:24;;;;;;;1.73;0.60;;;;;;;;;;5035680;28;20125;-69
2024/01/24 06:17:49;;;;;;;3.30;0.65;;;;;;;;;;5013462;28;20041;-70
2024/01/24 06:20:15;;;;;;;3.63;0.70;;;;;;;;;;5021484;28;20404;-67
2024/01/24 06:22:41;;;;;;;2.03;0.50;;;;;;;;;;5023741;28;20453;-69
2024/01/24 06:25:07;;;;;;;1.60;1.00;;;;;;;;;;5026086;28;20057;-68
2024/01/24 06:27:34;;;;;;;0.77;0.75;;;;;;;;;;5017648;28;20423;-69
2024/01/24 06:30:01;;;;;;;1.73;0.80;;;;;;;;;;5017074;28;20033;-69
2024/01/24 06:32:26;;;;;;;1.65;0.70;;;;;;;;;;5013073;28;20091;-68
2024/01/24 06:34:52;;;;;;;3.28;0.85;;;;;;;;;;4985264;28;20094;-69
2024/01/24 06:37:17;;;;;;;1.30;0.77;;;;;;;;;;4987555;28;20029;-68
2024/01/24 06:39:43;;;;;;;0.65;0.57;;;;;;;;;;5023855;28;20127;-68
2024/01/24 06:42:08;;;;;;;2.25;0.70;;;;;;;;;;5014486;28;20033;-68
2024/01/24 06:44:34;;;;;;;1.10;0.65;;;;;;;;;;5023835;28;20664;-68
2024/01/24 06:47:00;;;;;;;1.55;0.50;;;;;;;;;;5018376;28;20033;-68
2024/01/24 06:49:25;;;;;;;6.35;1.48;;;;;;;;;;5014150;28;20116;-68
2024/01/24 06:51:51;;;;;;;2.45;0.80;;;;;;;;;;5026089;28;20512;-67
2024/01/24 06:54:16;;;;;;;2.95;0.60;;;;;;;;;;5019925;28;20085;-68
2024/01/24 06:56:43;;;;;;;4.60;0.90;;;;;;;;;;5023636;28;20083;-69
2024/01/24 06:59:10;;;;;;;3.90;0.70;;;;;;;;;;5024024;28;20118;-70
2024/01/24 07:01:35;;;;;;;1.15;0.95;;;;;;;;;;5025442;28;20123;-70
2024/01/24 07:04:02;;;;;;;6.53;0.93;;;;;;;;;;5017887;28;20124;-71
2024/01/24 07:06:28;;;;;;;3.03;0.80;;;;;;;;;;5016449;28;20426;-72
2024/01/24 07:08:54;;;;;;;1.25;0.70;;;;;;;;;;5019564;28;20432;-68
2024/01/24 07:11:21;;;;;;;1.33;0.60;;;;;;;;;;5000724;28;20048;-69
2024/01/24 07:13:47;;;;;;;4.32;0.63;;;;;;;;;;5023597;28;20033;-69
2024/01/24 07:16:14;;;;;;;2.25;0.85;;;;;;;;;;5017105;28;20095;-69
2024/01/24 07:18:41;;;;;;;1.50;0.90;;;;;;;;;;5014759;28;20033;-69
2024/01/24 07:21:07;;;;;;;2.63;0.77;;;;;;;;;;5008304;28;20038;-68
2024/01/24 07:23:32;;;;;;;3.08;0.90;;;;;;;;;;5015448;28;20040;-70
2024/01/24 07:25:58;;;;;;;1.63;0.50;;;;;;;;;;5013561;28;20033;-71
2024/01/24 07:28:24;;;;;;;1.33;0.60;;;;;;;;;;5009937;28;20041;-71
2024/01/24 07:30:49;;;;;;;2.15;0.50;;;;;;;;;;5017281;28;20120;-69
2024/01/24 07:33:15;;;;;;;1.67;0.70;;;;;;;;;;5020457;28;20421;-71
2024/01/24 07:35:41;;;;;;;0.57;0.52;;;;;;;;;;5023078;28;20409;-69
2024/01/24 07:38:07;;;;;;;2.78;0.80;;;;;;;;;;5023822;28;20064;-70
2024/01/24 07:40:33;;;;;;;0.98;0.50;;;;;;;;;;5026228;28;20804;-69
2024/01/24 07:42:59;;;;;;;0.55;0.55;;;;;;;;;;5022085;28;20041;-69
2024/01/24 07:45:25;;;;;;;1.75;0.70;;;;;;;;;;5022382;28;20107;-70
2024/01/24 07:47:52;;;;;;;1.45;0.68;;;;;;;;;;5011743;28;20060;-68
2024/01/24 07:50:17;;;;;;;3.38;0.95;;;;;;;;;;5023633;28;20038;-70
2024/01/24 07:52:46;;;;;;;4.38;0.50;;;;;;;;;;5020130;28;20088;-69
2024/01/24 07:55:13;;;;;;;1.60;0.75;;;;;;;;;;5022061;28;20040;-70
2024/01/24 07:57:40;;;;;;;2.00;0.70;;;;;;;;;;5019360;28;20461;-67
2024/01/24 08:00:06;;;;;;;2.15;0.70;;;;;;;;;;5001482;28;20034;-69
2024/01/24 08:02:32;;;;;;;2.88;0.82;;;;;;;;;;5021512;28;20383;-70
2024/01/24 08:05:00;;;;;;;4.55;0.85;;;;;;;;;;5020921;28;20033;-70
2024/01/24 08:07:26;;;;;;;2.42;0.70;;;;;;;;;;5016913;28;20393;-70
2024/01/24 08:09:52;;;;;;;3.40;0.50;;;;;;;;;;5023579;28;20049;-70
2024/01/24 08:12:19;;;;;;;3.03;0.85;;;;;;;;;;5022326;28;20092;-70
2024/01/24 08:14:44;;;;;;;1.17;0.70;;;;;;;;;;5020115;28;20029;-70
2024/01/24 08:17:14;;;;;;;2.65;0.90;;;;;;;;;;5023086;28;20087;-72
2024/01/24 08:19:40;;;;;;;4.72;1.20;;;;;;;;;;5013604;28;20022;-68
2024/01/24 08:22:05;;;;;;;2.33;0.60;;;;;;;;;;5022503;28;20029;-69
2024/01/24 08:24:32;;;;;;;2.97;0.73;;;;;;;;;;5007252;28;20029;-72
2024/01/24 08:26:59;;;;;;;1.20;0.75;;;;;;;;;;5011884;28;20029;-70
2024/01/24 08:29:25;;;;;;;1.70;1.17;;;;;;;;;;5016327;28;20037;-72
2024/01/24 08:31:51;;;;;;;1.05;0.43;;;;;;;;;;5017830;28;20107;-71
2024/01/24 08:34:17;;;;;;;1.42;0.82;;;;;;;;;;5020516;28;20041;-72
2024/01/24 08:36:44;;;;;;;2.00;0.80;;;;;;;;;;5012699;28;20477;-70
2024/01/24 08:39:10;;;;;;;3.05;0.70;;;;;;;;;;5018208;28;20029;-70
2024/01/24 08:41:37;;;;;;;2.25;0.70;;;;;;;;;;5009168;28;20072;-70
2024/01/24 08:44:04;;;;;;;1.25;0.75;;;;;;;;;;5015210;28;20101;-71
2024/01/24 08:46:30;;;;;;;2.60;0.98;;;;;;;;;;5013552;28;20030;-73
2024/01/24 08:48:56;;;;;;;2.25;0.60;;;;;;;;;;5014927;28;20499;-72
2024/01/24 08:51:24;;;;;;;0.73;0.65;;;;;;;;;;5020388;28;20057;-71
2024/01/24 08:53:50;;;;;;;3.95;0.80;;;;;;;;;;5020692;28;20482;-73
2024/01/24 08:56:15;;;;;;;2.53;0.80;;;;;;;;;;5022866;28;20036;-70
2024/01/24 08:58:42;;;;;;;1.95;0.60;;;;;;;;;;5020107;28;20756;-68
2024/01/24 09:01:08;;;;;;;0.82;0.60;;;;;;;;;;5019600;28;20116;-70
2024/01/24 09:03:37;;;;;;;1.42;0.90;;;;;;;;;;5010889;28;20087;-72
2024/01/24 09:06:03;;;;;;;1.65;0.70;;;;;;;;;;5015269;28;20437;-73
2024/01/24 09:08:29;;;;;;;1.60;0.82;;;;;;;;;;4999395;28;20044;-69
2024/01/24 09:10:55;;;;;;;2.42;0.57;;;;;;;;;;5012970;28;20045;-70
2024/01/24 09:13:22;;;;;;;1.58;0.43;;;;;;;;;;5025022;28;20030;-73
2024/01/24 09:15:49;;;;;;;1.23;0.60;;;;;;;;;;5021394;28;20030;-69
2024/01/24 09:18:17;;;;;;;0.50;0.50;;;;;;;;;;5016374;28;20048;-71
2024/01/24 09:20:43;;;;;;;1.85;0.70;;;;;;;;;;5019582;28;20094;-71
2024/01/24 09:23:09;;;;;;;2.40;0.70;;;;;;;;;;5021537;28;20809;-70
2024/01/24 09:25:36;;;;;;;1.27;0.50;;;;;;;;;;5009823;28;20156;-71
2024/01/24 09:28:02;;;;;;;1.33;0.47;;;;;;;;;;5004975;28;20488;-69
2024/01/24 09:30:28;;;;;;;0.90;0.47;;;;;;;;;;5020960;28;20139;-72
2024/01/24 09:32:55;;;;;;;1.58;0.40;;;;;;;;;;5010362;28;21410;-70
2024/01/24 09:35:22;;;;;;;0.50;0.50;;;;;;;;;;5029170;28;20041;-69
2024/01/24 09:37:48;;;;;;;2.40;0.57;;;;;;;;;;5025866;28;20040;-72
2024/01/24 09:40:15;;;;;;;1.48;0.60;;;;;;;;;;5022325;28;20029;-70
2024/01/24 09:42:43;;;;;;;0.55;0.52;;;;;;;;;;5014053;28;20120;-69
2024/01/24 09:45:09;;;;;;;0.60;0.50;;;;;;;;;;5004524;28;20033;-71
2024/01/24 09:47:38;;;;;;;0.65;0.60;;;;;;;;;;5016392;28;20033;-72
2024/01/24 09:50:08;;;;;;;1.17;0.50;;;;;;;;;;5018103;28;20034;-70
2024/01/24 09:52:34;;;;;;;2.42;0.50;;;;;;;;;;5007161;28;20095;-70
2024/01/24 09:55:07;;;;;;;3.45;0.80;;;;;;;;;;5006597;28;20029;-70
2024/01/24 09:57:33;;;;;;;1.27;0.40;;;;;;;;;;5017159;28;20350;-72
2024/01/24 09:59:59;;;;;;;1.52;0.60;;;;;;;;;;4994630;28;20060;-69
2024/01/24 10:02:28;;;;;;;1.70;0.52;;;;;;;;;;5020955;28;20061;-71
2024/01/24 10:04:58;;;;;;;1.08;0.70;;;;;;;;;;5019937;28;20056;-72
2024/01/24 10:07:24;;;;;;;3.90;0.60;;;;;;;;;;5019690;28;20106;-72
2024/01/24 10:10:06;;;;;;;1.38;1.05;;;;;;;;;;5026198;28;20401;-69
2024/01/24 10:12:32;;;;;;;2.10;0.75;;;;;;;;;;5001746;28;20501;-72
2024/01/24 10:14:57;;;;;;;3.25;1.10;;;;;;;;;;5025600;28;20060;-69
2024/01/24 10:17:25;;;;;;;1.27;0.70;;;;;;;;;;5018864;28;20029;-73
2024/01/24 10:19:51;;;;;;;1.38;0.60;;;;;;;;;;4995051;28;20068;-72
2024/01/24 10:22:19;;;;;;;1.85;0.70;;;;;;;;;;5022798;28;20030;-72
2024/01/24 10:24:45;;;;;;;0.68;0.52;;;;;;;;;;5018472;28;20377;-70
2024/01/24 10:27:11;;;;;;;1.52;0.60;;;;;;;;;;5023291;28;20033;-69
2024/01/24 10:29:43;;;;;;;2.75;0.60;;;;;;;;;;5022060;28;20115;-70
2024/01/24 10:32:10;;;;;;;1.08;0.70;;;;;;;;;;5020465;28;20597;-72
2024/01/24 10:34:37;;;;;;;3.80;0.98;;;;;;;;;;5016653;28;20064;-70
2024/01/24 10:37:07;;;;;;;1.08;0.52;;;;;;;;;;5017083;28;20694;-72
2024/01/24 10:39:35;;;;;;;1.73;0.52;;;;;;;;;;5020127;28;20029;-70
2024/01/24 10:42:09;;;;;;;0.50;0.50;;;;;;;;;;5030782;28;20444;-68
2024/01/24 10:44:36;;;;;;;0.77;0.60;;;;;;;;;;5001385;28;20029;-69
2024/01/24 10:47:02;;;;;;;0.65;0.50;;;;;;;;;;5020525;28;20443;-67
2024/01/24 10:49:31;;;;;;;1.15;0.63;;;;;;;;;;5024037;28;20347;-70
2024/01/24 10:51:58;;;;;;;1.58;0.60;;;;;;;;;;5013792;28;20092;-72
2024/01/24 10:54:24;;;;;;;0.32;0.32;;;;;;;;;;5012572;28;20095;-69
2024/01/24 10:56:50;;;;;;;0.98;0.60;;;;;;;;;;5020292;28;20403;-69
2024/01/24 10:59:22;;;;;;;1.55;0.50;;;;;;;;;;5009891;28;20026;-72
2024/01/24 11:01:48;;;;;;;;;;;;;;;;;;5016392;28;20095;-69
2024/01/24 11:04:20;;;;;;;1.20;0.40;;;;;;;;;;5010742;28;19921;-68
2024/01/24 11:06:59;;;;;;;0.40;0.40;;;;;;;;;;5021036;28;20040;-70
2024/01/24 11:09:53;;;;;;;0.63;0.57;;;;;;;;;;5029947;28;20123;-71
2024/01/24 11:12:20;;;;;;;3.72;0.50;;;;;;;;;;5012763;28;20045;-71
2024/01/24 11:14:51;;;;;;;1.58;0.50;;;;;;;;;;5018289;28;20029;-68
2024/01/24 11:17:33;;;;;;;0.95;0.52;;;;;;;;;;5017124;28;20405;-70
2024/01/24 11:19:58;;;;;;;0.95;0.63;;;;;;;;;;5021356;28;20113;-69
2024/01/24 11:22:25;;;;;;;1.23;0.55;;;;;;;;;;5015310;28;20123;-72
2024/01/24 11:24:55;;;;;;;0.47;0.47;;;;;;;;;;5018176;28;20018;-69
2024/01/24 11:27:34;;;;;;;1.65;0.47;;;;;;;;;;5021614;28;20071;-70
2024/01/24 11:30:12;;;;;;;1.48;0.68;;;;;;;;;;5016335;28;20060;-71
2024/01/24 11:35:31;;;;;;;7.43;0.60;;;;;;;;;;5018705;28;20163;-72
2024/01/24 11:38:05;;;;;;;0.98;0.50;;;;;;;;;;5024680;28;20121;-72
2024/01/24 11:40:36;;;;;;;0.45;0.30;;;;;;;;;;5011875;28;20053;-71
2024/01/24 11:43:03;;;;;;;2.60;0.50;;;;;;;;;;4982836;28;20052;-73
2024/01/24 11:45:30;;;;;;;2.50;0.60;;;;;;;;;;5018568;28;20052;-70
2024/01/24 11:47:57;;;;;;;1.98;0.60;;;;;;;;;;5018277;28;20065;-70
2024/01/24 11:50:23;;;;;;;0.93;0.50;;;;;;;;;;5017604;28;20425;-70
2024/01/24 11:52:50;;;;;;;2.10;0.50;;;;;;;;;;5019379;28;20017;-69
2024/01/24 11:55:16;;;;;;;0.55;0.47;;;;;;;;;;5022506;28;20029;-71
2024/01/24 11:57:42;;;;;;;2.65;0.40;;;;;;;;;;4993593;28;20068;-69
2024/01/24 12:00:14;;;;;;;1.95;0.35;;;;;;;;;;4985356;28;20030;-70
2024/01/24 12:02:40;;;;;;;8.93;1.08;;;;;;;;;;5014295;28;20036;-72
2024/01/24 12:05:06;;;;;;;0.93;0.30;;;;;;;;;;5023193;28;20041;-70
2024/01/24 12:07:32;;;;;;;5.45;1.13;;;;;;;;;;5022353;28;20067;-71
2024/01/24 12:09:58;;;;;;;0.52;0.30;;;;;;;;;;5021947;28;20105;-72
2024/01/24 12:12:28;;;;;;;2.30;0.30;;;;;;;;;;5009464;28;20034;-69
2024/01/24 12:14:55;;;;;;;0.47;0.30;;;;;;;;;;5018030;28;20049;-71
2024/01/24 12:17:22;;;;;;;0.80;0.30;;;;;;;;;;5011943;28;20030;-69
2024/01/24 12:19:48;;;;;;;0.30;0.30;;;;;;;;;;5021336;28;20081;-72
2024/01/24 12:22:14;;;;;;;8.98;0.75;;;;;;;;;;5020000;28;20116;-69
2024/01/24 12:24:42;;;;;;;3.25;0.70;;;;;;;;;;5019135;28;20041;-68
2024/01/24 12:27:08;;;;;;;0.80;0.40;;;;;;;;;;5026372;28;20410;-69
2024/01/24 12:29:34;;;;;;;2.85;1.10;;;;;;;;;;5027712;28;20098;-69
2024/01/24 12:32:01;;;;;;;1.27;0.28;;;;;;;;;;5025782;28;20034;-70
2024/01/24 12:34:31;;;;;;;5.00;1.20;;;;;;;;;;5022706;28;20064;-69
2024/01/24 12:37:00;;;;;;;1.65;0.68;;;;;;;;;;5027022;28;20065;-73
2024/01/24 12:39:33;;;;;;;1.00;0.47;;;;;;;;;;5015214;28;20032;-69
2024/01/24 12:42:01;;;;;;;1.33;0.40;;;;;;;;;;5025547;28;20033;-72
2024/01/24 12:44:26;;;;;;;0.90;0.45;;;;;;;;;;5013709;28;20033;-71
2024/01/24 12:47:01;;;;;;;2.03;0.43;;;;;;;;;;5024928;28;20056;-68
2024/01/24 12:49:27;;;;;;;3.28;0.68;;;;;;;;;;5013979;28;20039;-72
2024/01/24 12:51:54;;;;;;;0.65;0.65;;;;;;;;;;5019030;28;20068;-72
2024/01/24 12:54:21;;;;;;;0.90;0.45;;;;;;;;;;5032289;28;20031;-73
2024/01/24 12:56:47;;;;;;;2.05;1.20;;;;;;;;;;5020583;28;20349;-70
2024/01/24 12:59:14;;;;;;;1.77;0.40;;;;;;;;;;5023198;28;20036;-70
2024/01/24 13:01:41;;;;;;;2.63;0.80;;;;;;;;;;5018205;28;20083;-71
2024/01/24 13:04:06;;;;;;;2.30;0.93;;;;;;;;;;5015445;28;20036;-71
2024/01/24 13:06:36;;;;;;;1.00;0.47;;;;;;;;;;5033028;28;20029;-71
2024/01/24 13:09:03;;;;;;;1.98;0.55;;;;;;;;;;5021796;28;20501;-70
2024/01/24 13:11:30;;;;;;;1.48;0.80;;;;;;;;;;5016416;28;20041;-70
2024/01/24 13:13:56;;;;;;;3.35;1.10;;;;;;;;;;5018901;28;20106;-72
2024/01/24 13:16:21;;;;;;;2.53;0.50;;;;;;;;;;5020210;28;20037;-72
2024/01/24 13:18:47;;;;;;;4.43;0.45;;;;;;;;;;5026279;28;20025;-73
2024/01/24 13:21:14;;;;;;;2.72;0.70;;;;;;;;;;5005872;28;20473;-70
2024/01/24 13:23:43;;;;;;;1.75;0.50;;;;;;;;;;5017638;28;20034;-73
2024/01/24 13:26:09;;;;;;;1.77;0.50;;;;;;;;;;5026732;28;20024;-71
2024/01/24 13:28:35;;;;;;;1.85;0.80;;;;;;;;;;5026178;28;20055;-72
2024/01/24 13:31:00;;;;;;;3.03;0.65;;;;;;;;;;5020173;28;20124;-75
2024/01/24 13:33:26;;;;;;;1.77;0.70;;;;;;;;;;5020058;28;20044;-70
2024/01/24 13:35:52;;;;;;;1.83;0.75;;;;;;;;;;5014664;28;20617;-72
2024/01/24 13:38:18;;;;;;;3.92;0.60;;;;;;;;;;5022333;28;20101;-72
2024/01/24 13:40:44;;;;;;;3.05;0.90;;;;;;;;;;5021923;28;20021;-77
2024/01/24 13:43:10;;;;;;;4.22;1.90;;;;;;;;;;5017197;28;20036;-72
2024/01/24 13:45:36;;;;;;;1.50;1.15;;;;;;;;;;5020789;28;20029;-73
2024/01/24 13:48:02;;;;;;;3.45;0.80;;;;;;;;;;5028011;28;20469;-70
2024/01/24 13:50:28;;;;;;;2.63;0.80;;;;;;;;;;5023523;28;20028;-70
2024/01/24 13:52:54;;;;;;;4.85;1.00;;;;;;;;;;5025669;28;20445;-71
2024/01/24 13:55:20;;;;;;;3.83;1.00;;;;;;;;;;5027260;28;20045;-73
2024/01/24 13:57:46;;;;;;;5.88;1.13;;;;;;;;;;5016617;28;20057;-70
2024/01/24 14:00:13;;;;;;;9.20;1.00;;;;;;;;;;5018419;28;20120;-73
2024/01/24 14:02:39;;;;;;;4.22;0.70;;;;;;;;;;5024023;28;20117;-71
2024/01/24 14:05:05;;;;;;;3.92;0.93;;;;;;;;;;5024369;28;20040;-71
2024/01/24 14:07:31;;;;;;;4.78;1.02;;;;;;;;;;5025767;28;20028;-71
2024/01/24 14:09:57;;;;;;;4.55;0.85;;;;;;;;;;5029332;28;20042;-69
2024/01/24 14:12:25;;;;;;;8.98;1.70;;;;;;;;;;5029351;28;20425;-70
2024/01/24 14:14:53;;;;;;;5.55;1.02;;;;;;;;;;5022009;28;20025;-71
2024/01/24 14:17:19;;;;;;;9.90;0.95;;;;;;;;;;5031288;28;20037;-71
2024/01/24 14:19:44;;;;;;;6.32;1.67;;;;;;;;;;5027117;28;20096;-70
2024/01/24 14:22:10;;;;;;;6.43;1.23;;;;;;;;;;5029449;28;20109;-71
2024/01/24 14:24:36;;;;;;;5.15;1.05;;;;;;;;;;5020696;28;20445;-73
2024/01/24 14:27:02;;;;;;;5.72;0.85;;;;;;;;;;5029882;28;21795;-71
2024/01/24 14:29:29;;;;;;;2.90;0.85;;;;;;;;;;5031403;28;20029;-69
2024/01/24 14:31:56;;;;;;;3.97;0.90;;;;;;;;;;5015571;28;20529;-69
2024/01/24 14:34:22;;;;;;;8.15;1.50;;;;;;;;;;5025130;28;20773;-70
2024/01/24 14:36:47;;;;;;;4.80;0.88;;;;;;;;;;5026023;28;20128;-71
2024/01/24 14:39:13;;;;;;;6.10;1.27;;;;;;;;;;5024077;28;20025;-70
2024/01/24 14:41:40;;;;;;;7.60;1.40;;;;;;;;;;5023950;28;20037;-70